sensor_id;sensor_type;location;lat;lon;timestamp;P1;durP1;ratioP1;P2;durP2;ratioP2
58302;SDS011;44109;52.398;7.024;2022-12-15T00:01:51;32.75;;;16.33;;
58302;SDS011;44109;52.398;7.024;2022-12-15T00:04:37;36.35;;;17.27;;
58302;SDS011;44109;52.398;7.024;2022-12-15T00:07:22;30.90;;;16.05;;
58302;SDS011;44109;52.398;7.024;2022-12-15T00:10:07;36.13;;;17.23;;
58302;SDS011;44109;52.398;7.024;2022-12-15T00:12:52;28.27;;;17.92;;
58302;SDS011;44109;52.398;7.024;2022-12-15T00:15:38;49.67;;;19.90;;
58302;SDS011;44109;52.398;7.024;2022-12-15T00:18:24;36.90;;;15.63;;
58302;SDS011;44109;52.398;7.024;2022-12-15T00:21:09;39.42;;;19.02;;
58302;SDS011;44109;52.398;7.024;2022-12-15T00:23:54;46.47;;;20.10;;
58302;SDS011;44109;52.398;7.024;2022-12-15T00:26:39;35.35;;;19.48;;
58302;SDS011;44109;52.398;7.024;2022-12-15T00:29:24;34.83;;;16.90;;
58302;SDS011;44109;52.398;7.024;2022-12-15T00:32:10;38.40;;;18.80;;
58302;SDS011;44109;52.398;7.024;2022-12-15T00:34:55;35.70;;;15.73;;
58302;SDS011;44109;52.398;7.024;2022-12-15T00:37:41;39.00;;;16.50;;
58302;SDS011;44109;52.398;7.024;2022-12-15T00:40:26;37.50;;;17.33;;
58302;SDS011;44109;52.398;7.024;2022-12-15T00:42:53;31.15;;;15.48;;
58302;SDS011;44109;52.398;7.024;2022-12-15T00:45:21;28.02;;;15.32;;
58302;SDS011;44109;52.398;7.024;2022-12-15T00:48:10;25.92;;;14.95;;
58302;SDS011;44109;52.398;7.024;2022-12-15T00:50:37;27.65;;;14.10;;
58302;SDS011;44109;52.398;7.024;2022-12-15T00:53:20;28.77;;;13.65;;
58302;SDS011;44109;52.398;7.024;2022-12-15T00:56:07;30.20;;;12.77;;
58302;SDS011;44109;52.398;7.024;2022-12-15T00:58:53;23.10;;;12.18;;
58302;SDS011;44109;52.398;7.024;2022-12-15T01:01:39;24.77;;;12.35;;
58302;SDS011;44109;52.398;7.024;2022-12-15T01:04:13;21.65;;;12.00;;
58302;SDS011;44109;52.398;7.024;2022-12-15T01:06:58;24.23;;;12.57;;
58302;SDS011;44109;52.398;7.024;2022-12-15T01:09:44;24.58;;;14.70;;
58302;SDS011;44109;52.398;7.024;2022-12-15T01:12:29;25.70;;;13.57;;
58302;SDS011;44109;52.398;7.024;2022-12-15T01:15:14;23.95;;;13.30;;
58302;SDS011;44109;52.398;7.024;2022-12-15T01:17:59;31.42;;;16.92;;
58302;SDS011;44109;52.398;7.024;2022-12-15T01:20:46;25.55;;;12.95;;
58302;SDS011;44109;52.398;7.024;2022-12-15T01:23:21;26.40;;;13.35;;
58302;SDS011;44109;52.398;7.024;2022-12-15T01:25:49;26.27;;;15.57;;
58302;SDS011;44109;52.398;7.024;2022-12-15T01:28:17;25.52;;;13.38;;
58302;SDS011;44109;52.398;7.024;2022-12-15T01:30:45;28.65;;;13.38;;
58302;SDS011;44109;52.398;7.024;2022-12-15T01:33:13;26.38;;;13.88;;
58302;SDS011;44109;52.398;7.024;2022-12-15T01:35:42;26.85;;;15.07;;
58302;SDS011;44109;52.398;7.024;2022-12-15T01:38:11;27.17;;;14.70;;
58302;SDS011;44109;52.398;7.024;2022-12-15T01:40:39;25.55;;;12.68;;
58302;SDS011;44109;52.398;7.024;2022-12-15T01:43:12;22.00;;;12.20;;
58302;SDS011;44109;52.398;7.024;2022-12-15T01:48:30;26.67;;;14.20;;
58302;SDS011;44109;52.398;7.024;2022-12-15T01:51:06;22.75;;;12.90;;
58302;SDS011;44109;52.398;7.024;2022-12-15T01:53:44;30.10;;;16.33;;
58302;SDS011;44109;52.398;7.024;2022-12-15T01:56:19;26.80;;;13.38;;
58302;SDS011;44109;52.398;7.024;2022-12-15T01:58:52;21.42;;;13.75;;
58302;SDS011;44109;52.398;7.024;2022-12-15T02:01:25;22.65;;;12.50;;
58302;SDS011;44109;52.398;7.024;2022-12-15T02:03:52;21.38;;;11.85;;
58302;SDS011;44109;52.398;7.024;2022-12-15T02:06:21;23.52;;;12.93;;
58302;SDS011;44109;52.398;7.024;2022-12-15T02:08:54;26.05;;;14.05;;
58302;SDS011;44109;52.398;7.024;2022-12-15T02:11:33;26.05;;;14.52;;
58302;SDS011;44109;52.398;7.024;2022-12-15T02:14:13;24.60;;;12.43;;
58302;SDS011;44109;52.398;7.024;2022-12-15T02:16:57;26.52;;;14.75;;
58302;SDS011;44109;52.398;7.024;2022-12-15T02:19:46;18.95;;;10.85;;
58302;SDS011;44109;52.398;7.024;2022-12-15T02:22:50;23.15;;;13.32;;
58302;SDS011;44109;52.398;7.024;2022-12-15T02:26:01;26.85;;;15.00;;
58302;SDS011;44109;52.398;7.024;2022-12-15T02:29:06;21.70;;;11.23;;
58302;SDS011;44109;52.398;7.024;2022-12-15T02:31:58;17.13;;;10.55;;
58302;SDS011;44109;52.398;7.024;2022-12-15T02:34:33;17.10;;;10.32;;
58302;SDS011;44109;52.398;7.024;2022-12-15T02:37:10;21.15;;;11.60;;
58302;SDS011;44109;52.398;7.024;2022-12-15T02:39:43;25.38;;;12.77;;
58302;SDS011;44109;52.398;7.024;2022-12-15T02:42:11;20.27;;;11.82;;
58302;SDS011;44109;52.398;7.024;2022-12-15T02:44:41;19.38;;;10.15;;
58302;SDS011;44109;52.398;7.024;2022-12-15T02:47:17;23.00;;;11.65;;
58302;SDS011;44109;52.398;7.024;2022-12-15T02:50:03;21.50;;;12.02;;
58302;SDS011;44109;52.398;7.024;2022-12-15T02:52:53;22.52;;;11.65;;
58302;SDS011;44109;52.398;7.024;2022-12-15T02:55:38;18.70;;;10.85;;
58302;SDS011;44109;52.398;7.024;2022-12-15T02:58:19;17.77;;;10.48;;
58302;SDS011;44109;52.398;7.024;2022-12-15T03:00:58;20.08;;;10.43;;
58302;SDS011;44109;52.398;7.024;2022-12-15T03:03:35;20.23;;;11.98;;
58302;SDS011;44109;52.398;7.024;2022-12-15T03:06:05;20.63;;;11.63;;
58302;SDS011;44109;52.398;7.024;2022-12-15T03:08:33;20.58;;;11.90;;
58302;SDS011;44109;52.398;7.024;2022-12-15T03:11:00;19.25;;;9.65;;
58302;SDS011;44109;52.398;7.024;2022-12-15T03:13:28;19.00;;;10.40;;
58302;SDS011;44109;52.398;7.024;2022-12-15T03:15:56;17.95;;;10.05;;
58302;SDS011;44109;52.398;7.024;2022-12-15T03:18:23;22.38;;;12.27;;
58302;SDS011;44109;52.398;7.024;2022-12-15T03:20:52;22.42;;;10.93;;
58302;SDS011;44109;52.398;7.024;2022-12-15T03:23:20;19.33;;;9.80;;
58302;SDS011;44109;52.398;7.024;2022-12-15T03:25:47;20.63;;;9.93;;
58302;SDS011;44109;52.398;7.024;2022-12-15T03:28:16;16.75;;;10.27;;
58302;SDS011;44109;52.398;7.024;2022-12-15T03:30:43;17.02;;;10.23;;
58302;SDS011;44109;52.398;7.024;2022-12-15T03:33:11;20.25;;;12.15;;
58302;SDS011;44109;52.398;7.024;2022-12-15T03:35:38;24.98;;;12.40;;
58302;SDS011;44109;52.398;7.024;2022-12-15T03:38:07;21.45;;;12.07;;
58302;SDS011;44109;52.398;7.024;2022-12-15T03:40:35;19.83;;;10.20;;
58302;SDS011;44109;52.398;7.024;2022-12-15T03:43:02;19.38;;;10.82;;
58302;SDS011;44109;52.398;7.024;2022-12-15T03:45:30;17.45;;;11.10;;
58302;SDS011;44109;52.398;7.024;2022-12-15T03:47:57;24.83;;;11.40;;
58302;SDS011;44109;52.398;7.024;2022-12-15T03:50:26;20.85;;;10.27;;
58302;SDS011;44109;52.398;7.024;2022-12-15T03:52:56;22.33;;;10.60;;
58302;SDS011;44109;52.398;7.024;2022-12-15T03:55:27;21.80;;;11.27;;
58302;SDS011;44109;52.398;7.024;2022-12-15T03:57:55;23.23;;;11.30;;
58302;SDS011;44109;52.398;7.024;2022-12-15T04:00:23;22.40;;;11.60;;
58302;SDS011;44109;52.398;7.024;2022-12-15T04:02:51;22.08;;;11.95;;
58302;SDS011;44109;52.398;7.024;2022-12-15T04:05:21;20.90;;;11.50;;
58302;SDS011;44109;52.398;7.024;2022-12-15T04:07:51;20.90;;;10.48;;
58302;SDS011;44109;52.398;7.024;2022-12-15T04:10:20;19.67;;;10.68;;
58302;SDS011;44109;52.398;7.024;2022-12-15T04:12:56;19.92;;;12.13;;
58302;SDS011;44109;52.398;7.024;2022-12-15T04:15:24;24.30;;;11.93;;
58302;SDS011;44109;52.398;7.024;2022-12-15T04:17:52;15.77;;;9.82;;
58302;SDS011;44109;52.398;7.024;2022-12-15T04:20:20;18.85;;;10.98;;
58302;SDS011;44109;52.398;7.024;2022-12-15T04:22:49;17.38;;;10.80;;
58302;SDS011;44109;52.398;7.024;2022-12-15T04:25:18;24.77;;;13.50;;
58302;SDS011;44109;52.398;7.024;2022-12-15T04:28:07;17.67;;;9.35;;
58302;SDS011;44109;52.398;7.024;2022-12-15T04:30:54;21.27;;;11.50;;
58302;SDS011;44109;52.398;7.024;2022-12-15T04:33:45;22.58;;;12.75;;
58302;SDS011;44109;52.398;7.024;2022-12-15T04:36:34;23.08;;;13.10;;
58302;SDS011;44109;52.398;7.024;2022-12-15T04:39:21;19.20;;;11.20;;
58302;SDS011;44109;52.398;7.024;2022-12-15T04:42:07;22.63;;;11.85;;
58302;SDS011;44109;52.398;7.024;2022-12-15T04:44:55;22.45;;;11.77;;
58302;SDS011;44109;52.398;7.024;2022-12-15T04:47:43;19.42;;;10.95;;
58302;SDS011;44109;52.398;7.024;2022-12-15T04:50:28;22.58;;;12.38;;
58302;SDS011;44109;52.398;7.024;2022-12-15T04:53:15;20.67;;;12.85;;
58302;SDS011;44109;52.398;7.024;2022-12-15T04:56:02;24.45;;;13.52;;
58302;SDS011;44109;52.398;7.024;2022-12-15T04:58:48;23.20;;;12.07;;
58302;SDS011;44109;52.398;7.024;2022-12-15T05:01:34;20.35;;;11.30;;
58302;SDS011;44109;52.398;7.024;2022-12-15T05:04:20;21.75;;;11.73;;
58302;SDS011;44109;52.398;7.024;2022-12-15T05:07:05;18.33;;;10.48;;
58302;SDS011;44109;52.398;7.024;2022-12-15T05:09:50;24.48;;;11.27;;
58302;SDS011;44109;52.398;7.024;2022-12-15T05:12:35;23.48;;;11.63;;
58302;SDS011;44109;52.398;7.024;2022-12-15T05:15:20;17.85;;;10.82;;
58302;SDS011;44109;52.398;7.024;2022-12-15T05:18:07;20.42;;;11.45;;
58302;SDS011;44109;52.398;7.024;2022-12-15T05:20:52;19.10;;;10.30;;
58302;SDS011;44109;52.398;7.024;2022-12-15T05:23:37;16.08;;;9.73;;
58302;SDS011;44109;52.398;7.024;2022-12-15T05:26:22;15.80;;;10.88;;
58302;SDS011;44109;52.398;7.024;2022-12-15T05:29:07;19.25;;;10.07;;
58302;SDS011;44109;52.398;7.024;2022-12-15T05:31:53;15.50;;;9.38;;
58302;SDS011;44109;52.398;7.024;2022-12-15T05:34:23;17.17;;;10.18;;
58302;SDS011;44109;52.398;7.024;2022-12-15T05:36:54;14.52;;;8.70;;
58302;SDS011;44109;52.398;7.024;2022-12-15T05:39:23;16.23;;;8.82;;
58302;SDS011;44109;52.398;7.024;2022-12-15T05:41:53;15.05;;;9.60;;
58302;SDS011;44109;52.398;7.024;2022-12-15T05:44:22;24.20;;;13.30;;
58302;SDS011;44109;52.398;7.024;2022-12-15T05:46:51;26.88;;;14.32;;
58302;SDS011;44109;52.398;7.024;2022-12-15T05:49:19;20.48;;;10.20;;
58302;SDS011;44109;52.398;7.024;2022-12-15T05:51:49;15.90;;;8.85;;
58302;SDS011;44109;52.398;7.024;2022-12-15T05:54:17;20.23;;;10.30;;
58302;SDS011;44109;52.398;7.024;2022-12-15T05:56:46;16.42;;;9.23;;
58302;SDS011;44109;52.398;7.024;2022-12-15T05:59:14;14.55;;;8.15;;
58302;SDS011;44109;52.398;7.024;2022-12-15T06:01:42;19.17;;;9.40;;
58302;SDS011;44109;52.398;7.024;2022-12-15T06:04:09;15.90;;;9.65;;
58302;SDS011;44109;52.398;7.024;2022-12-15T06:06:39;16.10;;;7.97;;
58302;SDS011;44109;52.398;7.024;2022-12-15T06:09:08;14.20;;;8.05;;
58302;SDS011;44109;52.398;7.024;2022-12-15T06:11:36;16.83;;;9.32;;
58302;SDS011;44109;52.398;7.024;2022-12-15T06:14:03;19.70;;;9.63;;
58302;SDS011;44109;52.398;7.024;2022-12-15T06:16:31;19.67;;;9.77;;
58302;SDS011;44109;52.398;7.024;2022-12-15T06:19:00;15.40;;;9.43;;
58302;SDS011;44109;52.398;7.024;2022-12-15T06:21:29;19.10;;;9.85;;
58302;SDS011;44109;52.398;7.024;2022-12-15T06:24:02;16.90;;;9.43;;
58302;SDS011;44109;52.398;7.024;2022-12-15T06:26:32;22.40;;;10.50;;
58302;SDS011;44109;52.398;7.024;2022-12-15T06:29:03;15.43;;;9.18;;
58302;SDS011;44109;52.398;7.024;2022-12-15T06:31:34;17.35;;;8.43;;
58302;SDS011;44109;52.398;7.024;2022-12-15T06:34:03;15.82;;;8.55;;
58302;SDS011;44109;52.398;7.024;2022-12-15T06:36:32;16.17;;;9.68;;
58302;SDS011;44109;52.398;7.024;2022-12-15T06:39:02;14.68;;;7.85;;
58302;SDS011;44109;52.398;7.024;2022-12-15T06:41:32;13.85;;;8.55;;
58302;SDS011;44109;52.398;7.024;2022-12-15T06:44:00;16.77;;;8.85;;
58302;SDS011;44109;52.398;7.024;2022-12-15T06:46:29;15.73;;;9.73;;
58302;SDS011;44109;52.398;7.024;2022-12-15T06:48:59;16.17;;;9.02;;
58302;SDS011;44109;52.398;7.024;2022-12-15T06:51:28;15.98;;;8.90;;
58302;SDS011;44109;52.398;7.024;2022-12-15T06:53:55;14.27;;;7.85;;
58302;SDS011;44109;52.398;7.024;2022-12-15T06:56:25;15.18;;;8.60;;
58302;SDS011;44109;52.398;7.024;2022-12-15T06:58:55;16.35;;;8.52;;
58302;SDS011;44109;52.398;7.024;2022-12-15T07:01:24;20.20;;;9.55;;
58302;SDS011;44109;52.398;7.024;2022-12-15T07:03:52;16.40;;;8.82;;
58302;SDS011;44109;52.398;7.024;2022-12-15T07:06:21;16.88;;;9.55;;
58302;SDS011;44109;52.398;7.024;2022-12-15T07:08:49;14.35;;;7.82;;
58302;SDS011;44109;52.398;7.024;2022-12-15T07:11:19;15.75;;;9.35;;
58302;SDS011;44109;52.398;7.024;2022-12-15T07:13:49;18.67;;;9.40;;
58302;SDS011;44109;52.398;7.024;2022-12-15T07:16:18;13.65;;;8.25;;
58302;SDS011;44109;52.398;7.024;2022-12-15T07:18:47;16.25;;;9.48;;
58302;SDS011;44109;52.398;7.024;2022-12-15T07:21:16;17.67;;;9.23;;
58302;SDS011;44109;52.398;7.024;2022-12-15T07:23:43;17.25;;;9.15;;
58302;SDS011;44109;52.398;7.024;2022-12-15T07:26:11;15.15;;;8.73;;
58302;SDS011;44109;52.398;7.024;2022-12-15T07:28:39;16.08;;;9.95;;
58302;SDS011;44109;52.398;7.024;2022-12-15T07:31:08;16.90;;;8.20;;
58302;SDS011;44109;52.398;7.024;2022-12-15T07:33:37;14.77;;;7.60;;
58302;SDS011;44109;52.398;7.024;2022-12-15T07:36:05;18.73;;;9.50;;
58302;SDS011;44109;52.398;7.024;2022-12-15T07:38:34;15.45;;;8.70;;
58302;SDS011;44109;52.398;7.024;2022-12-15T07:41:03;16.83;;;9.10;;
58302;SDS011;44109;52.398;7.024;2022-12-15T07:43:33;18.40;;;9.32;;
58302;SDS011;44109;52.398;7.024;2022-12-15T07:46:01;19.73;;;10.00;;
58302;SDS011;44109;52.398;7.024;2022-12-15T07:48:31;19.30;;;10.27;;
58302;SDS011;44109;52.398;7.024;2022-12-15T07:51:03;15.80;;;9.00;;
58302;SDS011;44109;52.398;7.024;2022-12-15T07:53:32;15.80;;;9.75;;
58302;SDS011;44109;52.398;7.024;2022-12-15T07:56:00;18.23;;;10.52;;
58302;SDS011;44109;52.398;7.024;2022-12-15T07:58:30;16.52;;;10.63;;
58302;SDS011;44109;52.398;7.024;2022-12-15T08:00:58;18.08;;;10.35;;
58302;SDS011;44109;52.398;7.024;2022-12-15T08:03:28;17.90;;;10.18;;
58302;SDS011;44109;52.398;7.024;2022-12-15T08:05:57;16.90;;;9.88;;
58302;SDS011;44109;52.398;7.024;2022-12-15T08:08:30;19.90;;;9.48;;
58302;SDS011;44109;52.398;7.024;2022-12-15T08:10:58;20.90;;;10.45;;
58302;SDS011;44109;52.398;7.024;2022-12-15T08:13:30;19.00;;;10.88;;
58302;SDS011;44109;52.398;7.024;2022-12-15T08:15:59;17.33;;;9.85;;
58302;SDS011;44109;52.398;7.024;2022-12-15T08:18:27;21.88;;;11.43;;
58302;SDS011;44109;52.398;7.024;2022-12-15T08:20:56;21.15;;;11.70;;
58302;SDS011;44109;52.398;7.024;2022-12-15T08:23:29;27.08;;;13.98;;
58302;SDS011;44109;52.398;7.024;2022-12-15T08:26:00;39.00;;;19.30;;
58302;SDS011;44109;52.398;7.024;2022-12-15T08:28:29;49.30;;;20.85;;
58302;SDS011;44109;52.398;7.024;2022-12-15T08:31:00;31.08;;;14.43;;
58302;SDS011;44109;52.398;7.024;2022-12-15T08:33:29;37.17;;;17.27;;
58302;SDS011;44109;52.398;7.024;2022-12-15T08:35:59;36.45;;;18.38;;
58302;SDS011;44109;52.398;7.024;2022-12-15T08:38:29;47.90;;;23.85;;
58302;SDS011;44109;52.398;7.024;2022-12-15T08:41:00;47.80;;;22.55;;
58302;SDS011;44109;52.398;7.024;2022-12-15T08:43:34;57.60;;;25.15;;
58302;SDS011;44109;52.398;7.024;2022-12-15T08:46:02;60.50;;;26.02;;
58302;SDS011;44109;52.398;7.024;2022-12-15T08:48:30;56.85;;;25.83;;
58302;SDS011;44109;52.398;7.024;2022-12-15T08:50:59;53.30;;;25.85;;
58302;SDS011;44109;52.398;7.024;2022-12-15T08:53:28;46.58;;;25.00;;
58302;SDS011;44109;52.398;7.024;2022-12-15T08:56:00;41.03;;;23.25;;
58302;SDS011;44109;52.398;7.024;2022-12-15T08:58:29;41.67;;;21.25;;
58302;SDS011;44109;52.398;7.024;2022-12-15T09:00:58;47.33;;;20.48;;
58302;SDS011;44109;52.398;7.024;2022-12-15T09:03:27;37.85;;;20.05;;
58302;SDS011;44109;52.398;7.024;2022-12-15T09:05:55;37.97;;;19.20;;
58302;SDS011;44109;52.398;7.024;2022-12-15T09:08:28;41.70;;;18.65;;
58302;SDS011;44109;52.398;7.024;2022-12-15T09:10:56;40.20;;;16.98;;
58302;SDS011;44109;52.398;7.024;2022-12-15T09:13:24;36.17;;;19.27;;
58302;SDS011;44109;52.398;7.024;2022-12-15T09:15:54;32.50;;;18.60;;
58302;SDS011;44109;52.398;7.024;2022-12-15T09:18:22;33.50;;;16.45;;
58302;SDS011;44109;52.398;7.024;2022-12-15T09:20:50;30.00;;;17.40;;
58302;SDS011;44109;52.398;7.024;2022-12-15T09:23:18;31.40;;;15.48;;
58302;SDS011;44109;52.398;7.024;2022-12-15T09:25:48;30.10;;;17.63;;
58302;SDS011;44109;52.398;7.024;2022-12-15T09:28:16;33.10;;;17.60;;
58302;SDS011;44109;52.398;7.024;2022-12-15T09:30:43;35.13;;;19.00;;
58302;SDS011;44109;52.398;7.024;2022-12-15T09:33:11;29.15;;;16.08;;
58302;SDS011;44109;52.398;7.024;2022-12-15T09:35:38;30.73;;;16.30;;
58302;SDS011;44109;52.398;7.024;2022-12-15T09:38:06;26.63;;;15.80;;
58302;SDS011;44109;52.398;7.024;2022-12-15T09:40:33;28.00;;;15.77;;
58302;SDS011;44109;52.398;7.024;2022-12-15T09:43:02;26.73;;;15.85;;
58302;SDS011;44109;52.398;7.024;2022-12-15T09:45:32;30.83;;;16.92;;
58302;SDS011;44109;52.398;7.024;2022-12-15T09:48:09;26.20;;;14.50;;
58302;SDS011;44109;52.398;7.024;2022-12-15T09:50:45;24.90;;;15.75;;
58302;SDS011;44109;52.398;7.024;2022-12-15T09:53:17;27.77;;;15.23;;
58302;SDS011;44109;52.398;7.024;2022-12-15T09:55:51;26.85;;;15.45;;
58302;SDS011;44109;52.398;7.024;2022-12-15T09:58:31;24.25;;;15.40;;
58302;SDS011;44109;52.398;7.024;2022-12-15T10:01:15;25.63;;;15.07;;
58302;SDS011;44109;52.398;7.024;2022-12-15T10:03:58;25.35;;;15.73;;
58302;SDS011;44109;52.398;7.024;2022-12-15T10:06:34;24.85;;;16.13;;
58302;SDS011;44109;52.398;7.024;2022-12-15T10:09:11;27.92;;;17.35;;
58302;SDS011;44109;52.398;7.024;2022-12-15T10:11:47;30.05;;;17.05;;
58302;SDS011;44109;52.398;7.024;2022-12-15T10:14:28;25.73;;;15.95;;
58302;SDS011;44109;52.398;7.024;2022-12-15T10:17:05;28.92;;;17.70;;
58302;SDS011;44109;52.398;7.024;2022-12-15T10:19:48;26.25;;;16.92;;
58302;SDS011;44109;52.398;7.024;2022-12-15T10:22:28;27.90;;;15.77;;
58302;SDS011;44109;52.398;7.024;2022-12-15T10:25:00;25.15;;;15.32;;
58302;SDS011;44109;52.398;7.024;2022-12-15T10:30:47;27.98;;;16.77;;
58302;SDS011;44109;52.398;7.024;2022-12-15T10:33:21;24.40;;;15.02;;
58302;SDS011;44109;52.398;7.024;2022-12-15T10:35:52;27.13;;;15.38;;
58302;SDS011;44109;52.398;7.024;2022-12-15T10:38:22;26.73;;;16.40;;
58302;SDS011;44109;52.398;7.024;2022-12-15T10:40:59;24.98;;;15.15;;
58302;SDS011;44109;52.398;7.024;2022-12-15T10:43:32;31.55;;;16.85;;
58302;SDS011;44109;52.398;7.024;2022-12-15T10:46:09;28.67;;;16.55;;
58302;SDS011;44109;52.398;7.024;2022-12-15T10:48:41;29.13;;;16.73;;
58302;SDS011;44109;52.398;7.024;2022-12-15T10:51:13;31.02;;;17.58;;
58302;SDS011;44109;52.398;7.024;2022-12-15T10:53:46;28.02;;;16.88;;
58302;SDS011;44109;52.398;7.024;2022-12-15T10:56:17;38.05;;;23.50;;
58302;SDS011;44109;52.398;7.024;2022-12-15T10:58:50;27.33;;;17.25;;
58302;SDS011;44109;52.398;7.024;2022-12-15T11:01:24;30.92;;;18.85;;
58302;SDS011;44109;52.398;7.024;2022-12-15T11:03:54;30.48;;;18.45;;
58302;SDS011;44109;52.398;7.024;2022-12-15T11:06:23;32.13;;;19.65;;
58302;SDS011;44109;52.398;7.024;2022-12-15T11:08:55;31.70;;;19.63;;
58302;SDS011;44109;52.398;7.024;2022-12-15T11:11:34;31.00;;;18.70;;
58302;SDS011;44109;52.398;7.024;2022-12-15T11:14:39;30.58;;;18.17;;
58302;SDS011;44109;52.398;7.024;2022-12-15T11:17:14;26.17;;;16.77;;
58302;SDS011;44109;52.398;7.024;2022-12-15T11:19:47;26.27;;;18.00;;
58302;SDS011;44109;52.398;7.024;2022-12-15T11:22:25;28.90;;;18.27;;
58302;SDS011;44109;52.398;7.024;2022-12-15T11:25:11;31.58;;;18.58;;
58302;SDS011;44109;52.398;7.024;2022-12-15T11:27:51;28.38;;;17.15;;
58302;SDS011;44109;52.398;7.024;2022-12-15T11:30:23;28.75;;;18.50;;
58302;SDS011;44109;52.398;7.024;2022-12-15T11:33:00;30.80;;;18.58;;
58302;SDS011;44109;52.398;7.024;2022-12-15T11:35:31;27.23;;;18.55;;
58302;SDS011;44109;52.398;7.024;2022-12-15T11:38:18;30.92;;;19.30;;
58302;SDS011;44109;52.398;7.024;2022-12-15T11:40:59;31.63;;;17.67;;
58302;SDS011;44109;52.398;7.024;2022-12-15T11:43:44;37.05;;;23.60;;
58302;SDS011;44109;52.398;7.024;2022-12-15T11:46:33;28.60;;;17.73;;
58302;SDS011;44109;52.398;7.024;2022-12-15T11:49:18;30.60;;;18.20;;
58302;SDS011;44109;52.398;7.024;2022-12-15T11:52:42;31.52;;;18.75;;
58302;SDS011;44109;52.398;7.024;2022-12-15T11:55:38;30.58;;;19.33;;
58302;SDS011;44109;52.398;7.024;2022-12-15T11:58:27;29.17;;;17.98;;
58302;SDS011;44109;52.398;7.024;2022-12-15T12:01:27;33.85;;;20.95;;
58302;SDS011;44109;52.398;7.024;2022-12-15T12:04:19;28.23;;;17.27;;
58302;SDS011;44109;52.398;7.024;2022-12-15T12:06:54;26.02;;;17.08;;
58302;SDS011;44109;52.398;7.024;2022-12-15T12:09:34;24.83;;;16.60;;
58302;SDS011;44109;52.398;7.024;2022-12-15T12:12:11;27.75;;;18.75;;
58302;SDS011;44109;52.398;7.024;2022-12-15T12:14:54;25.70;;;17.23;;
58302;SDS011;44109;52.398;7.024;2022-12-15T12:17:48;28.10;;;17.98;;
58302;SDS011;44109;52.398;7.024;2022-12-15T12:20:22;33.60;;;20.50;;
58302;SDS011;44109;52.398;7.024;2022-12-15T12:22:57;26.75;;;16.60;;
58302;SDS011;44109;52.398;7.024;2022-12-15T12:25:30;25.05;;;17.05;;
58302;SDS011;44109;52.398;7.024;2022-12-15T12:28:14;25.50;;;17.17;;
58302;SDS011;44109;52.398;7.024;2022-12-15T12:30:48;29.35;;;20.48;;
58302;SDS011;44109;52.398;7.024;2022-12-15T12:33:18;23.88;;;17.88;;
58302;SDS011;44109;52.398;7.024;2022-12-15T12:36:01;26.75;;;19.00;;
58302;SDS011;44109;52.398;7.024;2022-12-15T12:38:37;33.03;;;20.95;;
58302;SDS011;44109;52.398;7.024;2022-12-15T12:41:13;35.10;;;21.73;;
58302;SDS011;44109;52.398;7.024;2022-12-15T12:43:53;27.45;;;19.75;;
58302;SDS011;44109;52.398;7.024;2022-12-15T12:46:26;28.60;;;18.63;;
58302;SDS011;44109;52.398;7.024;2022-12-15T12:49:02;31.65;;;20.08;;
58302;SDS011;44109;52.398;7.024;2022-12-15T12:51:41;28.27;;;18.95;;
58302;SDS011;44109;52.398;7.024;2022-12-15T12:57:28;33.40;;;23.75;;
58302;SDS011;44109;52.398;7.024;2022-12-15T13:00:02;28.65;;;17.98;;
58302;SDS011;44109;52.398;7.024;2022-12-15T13:02:45;33.55;;;20.13;;
58302;SDS011;44109;52.398;7.024;2022-12-15T13:05:22;26.73;;;17.17;;
58302;SDS011;44109;52.398;7.024;2022-12-15T13:14:32;29.40;;;19.40;;
58302;SDS011;44109;52.398;7.024;2022-12-15T13:17:11;30.60;;;18.83;;
58302;SDS011;44109;52.398;7.024;2022-12-15T13:20:05;30.40;;;20.75;;
58302;SDS011;44109;52.398;7.024;2022-12-15T13:22:49;27.33;;;17.67;;
58302;SDS011;44109;52.398;7.024;2022-12-15T13:28:21;36.00;;;21.43;;
58302;SDS011;44109;52.398;7.024;2022-12-15T13:31:11;29.52;;;21.05;;
58302;SDS011;44109;52.398;7.024;2022-12-15T13:34:17;29.60;;;18.60;;
58302;SDS011;44109;52.398;7.024;2022-12-15T13:36:48;30.30;;;19.45;;
58302;SDS011;44109;52.398;7.024;2022-12-15T13:39:32;30.25;;;19.40;;
58302;SDS011;44109;52.398;7.024;2022-12-15T13:42:30;28.33;;;17.58;;
58302;SDS011;44109;52.398;7.024;2022-12-15T13:51:18;25.65;;;16.23;;
58302;SDS011;44109;52.398;7.024;2022-12-15T13:53:56;26.15;;;17.35;;
58302;SDS011;44109;52.398;7.024;2022-12-15T13:56:40;20.42;;;14.60;;
58302;SDS011;44109;52.398;7.024;2022-12-15T14:02:22;23.05;;;15.93;;
58302;SDS011;44109;52.398;7.024;2022-12-15T14:05:03;21.90;;;14.80;;
58302;SDS011;44109;52.398;7.024;2022-12-15T14:10:06;24.65;;;16.65;;
58302;SDS011;44109;52.398;7.024;2022-12-15T14:12:49;27.35;;;16.88;;
58302;SDS011;44109;52.398;7.024;2022-12-15T14:15:21;20.67;;;13.25;;
58302;SDS011;44109;52.398;7.024;2022-12-15T14:17:54;17.70;;;12.68;;
58302;SDS011;44109;52.398;7.024;2022-12-15T14:20:27;20.90;;;14.45;;
58302;SDS011;44109;52.398;7.024;2022-12-15T14:22:57;32.47;;;20.55;;
58302;SDS011;44109;52.398;7.024;2022-12-15T14:25:26;24.40;;;16.00;;
58302;SDS011;44109;52.398;7.024;2022-12-15T14:27:55;20.40;;;12.63;;
58302;SDS011;44109;52.398;7.024;2022-12-15T14:30:25;25.17;;;16.08;;
58302;SDS011;44109;52.398;7.024;2022-12-15T14:35:29;20.42;;;13.93;;
58302;SDS011;44109;52.398;7.024;2022-12-15T14:38:04;25.02;;;17.42;;
58302;SDS011;44109;52.398;7.024;2022-12-15T14:40:42;19.45;;;12.57;;
58302;SDS011;44109;52.398;7.024;2022-12-15T14:43:14;32.20;;;19.83;;
58302;SDS011;44109;52.398;7.024;2022-12-15T14:45:50;21.70;;;15.15;;
58302;SDS011;44109;52.398;7.024;2022-12-15T14:48:25;24.05;;;15.93;;
58302;SDS011;44109;52.398;7.024;2022-12-15T14:50:58;30.88;;;18.42;;
58302;SDS011;44109;52.398;7.024;2022-12-15T14:53:29;22.33;;;13.68;;
58302;SDS011;44109;52.398;7.024;2022-12-15T14:56:11;27.17;;;16.63;;
58302;SDS011;44109;52.398;7.024;2022-12-15T14:58:52;31.60;;;18.88;;
58302;SDS011;44109;52.398;7.024;2022-12-15T15:01:27;30.92;;;17.92;;
58302;SDS011;44109;52.398;7.024;2022-12-15T15:03:59;25.25;;;15.80;;
58302;SDS011;44109;52.398;7.024;2022-12-15T15:06:33;24.58;;;16.00;;
58302;SDS011;44109;52.398;7.024;2022-12-15T15:09:13;24.33;;;15.75;;
58302;SDS011;44109;52.398;7.024;2022-12-15T15:11:50;25.90;;;15.70;;
58302;SDS011;44109;52.398;7.024;2022-12-15T15:14:22;22.10;;;14.85;;
58302;SDS011;44109;52.398;7.024;2022-12-15T15:16:59;25.00;;;14.63;;
58302;SDS011;44109;52.398;7.024;2022-12-15T15:19:35;21.10;;;13.73;;
58302;SDS011;44109;52.398;7.024;2022-12-15T15:22:10;23.23;;;14.60;;
58302;SDS011;44109;52.398;7.024;2022-12-15T15:24:54;20.60;;;14.15;;
58302;SDS011;44109;52.398;7.024;2022-12-15T15:27:31;22.90;;;15.10;;
58302;SDS011;44109;52.398;7.024;2022-12-15T15:30:15;21.02;;;13.82;;
58302;SDS011;44109;52.398;7.024;2022-12-15T15:32:55;19.10;;;13.02;;
58302;SDS011;44109;52.398;7.024;2022-12-15T15:35:29;24.38;;;15.38;;
58302;SDS011;44109;52.398;7.024;2022-12-15T15:38:01;24.75;;;14.75;;
58302;SDS011;44109;52.398;7.024;2022-12-15T15:40:33;18.80;;;13.98;;
58302;SDS011;44109;52.398;7.024;2022-12-15T15:43:00;26.30;;;15.82;;
58302;SDS011;44109;52.398;7.024;2022-12-15T15:45:36;24.73;;;15.70;;